createdAt,value
2024-05-09T00:01:29.008Z,99.77
2024-05-09T00:03:56.642Z,99.78
2024-05-09T00:06:24.249Z,99.88
2024-05-09T00:08:51.760Z,100.00
2024-05-09T00:11:20.576Z,100.00
2024-05-09T00:13:48.582Z,100.00
2024-05-09T00:16:16.162Z,100.00
2024-05-09T00:18:43.807Z,100.00
2024-05-09T00:21:11.497Z,100.00
2024-05-09T00:23:39.207Z,100.00
2024-05-09T00:26:07.061Z,100.00
2024-05-09T00:28:34.670Z,100.00
2024-05-09T00:31:02.778Z,100.00
2024-05-09T00:33:30.700Z,100.00
2024-05-09T00:35:58.484Z,100.00
2024-05-09T00:38:26.123Z,100.00
2024-05-09T00:40:53.833Z,100.00
2024-05-09T00:43:21.390Z,100.00
2024-05-09T00:45:49.030Z,100.00
2024-05-09T00:48:19.787Z,100.00
2024-05-09T00:50:50.393Z,100.00
2024-05-09T00:53:19.149Z,100.00
2024-05-09T00:55:47.837Z,100.00
2024-05-09T00:58:19.973Z,100.00
2024-05-09T01:00:50.090Z,100.00
2024-05-09T01:03:18.094Z,100.00
2024-05-09T01:05:45.880Z,100.00
2024-05-09T01:08:13.671Z,100.00
2024-05-09T01:10:44.160Z,100.00
2024-05-09T01:13:13.791Z,100.00
2024-05-09T01:15:41.714Z,100.00
2024-05-09T01:18:13.799Z,100.00
2024-05-09T01:20:44.609Z,100.00
2024-05-09T01:23:15.215Z,100.00
2024-05-09T01:25:45.866Z,100.00
2024-05-09T01:28:14.861Z,100.00
2024-05-09T01:30:42.503Z,100.00
2024-05-09T01:33:11.854Z,100.00
2024-05-09T01:35:41.656Z,100.00
2024-05-09T01:38:16.726Z,100.00
2024-05-09T01:40:45.183Z,100.00
2024-05-09T01:43:12.907Z,100.00
2024-05-09T01:45:41.283Z,100.00
2024-05-09T01:48:11.148Z,100.00
2024-05-09T01:50:42.089Z,100.00
2024-05-09T01:53:13.745Z,100.00
2024-05-09T01:55:43.001Z,100.00
2024-05-09T01:58:10.915Z,100.00
2024-05-09T02:00:42.311Z,100.00
2024-05-09T02:03:16.040Z,100.00
2024-05-09T02:05:48.311Z,100.00
2024-05-09T02:08:21.543Z,100.00
2024-05-09T02:10:50.707Z,100.00
2024-05-09T02:13:18.734Z,100.00
2024-05-09T02:15:46.547Z,100.00
2024-05-09T02:18:14.473Z,100.00
2024-05-09T02:20:43.123Z,100.00
2024-05-09T02:23:12.114Z,100.00
2024-05-09T02:25:41.242Z,100.00
2024-05-09T02:28:09.100Z,100.00
2024-05-09T02:30:40.650Z,100.00
2024-05-09T02:33:11.692Z,100.00
2024-05-09T02:35:42.225Z,100.00
2024-05-09T02:38:10.597Z,100.00
2024-05-09T02:40:39.697Z,100.00
2024-05-09T02:43:10.174Z,100.00
2024-05-09T02:45:40.342Z,100.00
2024-05-09T02:48:13.235Z,100.00
2024-05-09T02:50:43.808Z,100.00
2024-05-09T02:53:12.250Z,100.00
2024-05-09T02:55:40.899Z,100.00
2024-05-09T02:58:09.304Z,100.00
2024-05-09T03:00:40.881Z,100.00
2024-05-09T03:03:13.432Z,100.00
2024-05-09T03:05:44.962Z,100.00
2024-05-09T03:08:13.342Z,100.00
2024-05-09T03:10:41.329Z,100.00
2024-05-09T03:13:12.250Z,100.00
2024-05-09T03:15:40.693Z,100.00
2024-05-09T03:18:08.486Z,100.00
2024-05-09T03:20:37.198Z,100.00
2024-05-09T03:23:09.245Z,100.00
2024-05-09T03:25:38.635Z,100.00
2024-05-09T03:28:07.146Z,100.00
2024-05-09T03:30:41.095Z,100.00
2024-05-09T03:33:17.430Z,100.00
2024-05-09T03:35:46.923Z,100.00
2024-05-09T03:38:15.216Z,100.00
2024-05-09T03:40:50.393Z,100.00
2024-05-09T03:43:19.786Z,100.00
2024-05-09T03:45:49.503Z,100.00
2024-05-09T03:48:17.520Z,100.00
2024-05-09T03:50:45.410Z,100.00
2024-05-09T03:53:14.375Z,100.00
2024-05-09T03:55:42.115Z,100.00
2024-05-09T03:58:09.836Z,100.00
2024-05-09T04:00:39.556Z,100.00
2024-05-09T04:03:10.790Z,100.00
2024-05-09T04:05:42.592Z,100.00
2024-05-09T04:08:15.230Z,100.00
2024-05-09T04:10:43.506Z,100.00
2024-05-09T04:13:11.412Z,100.00
2024-05-09T04:15:39.534Z,100.00
2024-05-09T04:18:07.404Z,100.00
2024-05-09T04:20:39.175Z,100.00
2024-05-09T04:23:13.533Z,100.00
2024-05-09T04:25:44.036Z,100.00
2024-05-09T04:28:12.678Z,100.00
2024-05-09T04:30:41.729Z,100.00
2024-05-09T04:33:12.368Z,100.00
2024-05-09T04:35:45.505Z,100.00
2024-05-09T04:38:14.431Z,100.00
2024-05-09T04:40:43.208Z,100.00
2024-05-09T04:43:15.944Z,100.00
2024-05-09T04:45:44.406Z,100.00
2024-05-09T04:48:12.313Z,100.00
2024-05-09T04:50:40.303Z,100.00
2024-05-09T04:53:09.891Z,100.00
2024-05-09T04:55:40.023Z,100.00
2024-05-09T04:58:09.228Z,100.00
2024-05-09T05:00:39.730Z,100.00
2024-05-09T05:03:13.876Z,100.00
2024-05-09T05:05:45.686Z,100.00
2024-05-09T05:08:19.064Z,100.00
2024-05-09T05:10:48.426Z,100.00
2024-05-09T05:13:19.878Z,100.00
2024-05-09T05:15:51.130Z,100.00
2024-05-09T05:18:19.665Z,100.00
2024-05-09T05:20:48.201Z,100.00
2024-05-09T05:23:19.226Z,100.00
2024-05-09T05:25:48.501Z,100.00
2024-05-09T05:28:17.227Z,100.00
2024-05-09T05:30:45.905Z,100.00
2024-05-09T05:33:15.285Z,100.00
2024-05-09T05:35:43.845Z,100.00
2024-05-09T05:38:11.631Z,100.00
2024-05-09T05:40:40.431Z,100.00
2024-05-09T05:43:15.852Z,100.00
2024-05-09T05:45:45.432Z,100.00
2024-05-09T05:48:18.020Z,100.00
2024-05-09T05:50:46.351Z,100.00
2024-05-09T05:53:14.309Z,100.00
2024-05-09T05:55:42.115Z,100.00
2024-05-09T05:58:10.868Z,100.00
2024-05-09T06:00:40.252Z,100.00
2024-05-09T06:03:09.963Z,99.39
2024-05-09T06:05:40.039Z,98.10
2024-05-09T06:08:08.563Z,96.48
2024-05-09T06:10:39.543Z,94.71
2024-05-09T06:13:13.121Z,93.21
2024-05-09T06:15:42.050Z,92.91
2024-05-09T06:18:11.374Z,89.67
2024-05-09T06:20:43.030Z,86.81
2024-05-09T06:23:12.408Z,85.92
2024-05-09T06:25:41.608Z,82.80
2024-05-09T06:28:09.461Z,81.74
2024-05-09T06:30:40.216Z,80.77
2024-05-09T06:33:12.884Z,80.50
2024-05-09T06:35:43.255Z,78.26
2024-05-09T06:38:11.655Z,81.82
2024-05-09T06:40:42.363Z,82.42
2024-05-09T06:43:16.574Z,80.88
2024-05-09T06:45:48.269Z,79.41
2024-05-09T06:48:18.790Z,77.20
2024-05-09T06:50:47.358Z,78.90
2024-05-09T06:53:16.294Z,78.30
2024-05-09T06:55:43.979Z,78.37
2024-05-09T06:58:11.583Z,74.95
2024-05-09T07:00:41.302Z,71.30
2024-05-09T07:03:12.285Z,73.78
2024-05-09T07:05:41.756Z,73.73
2024-05-09T07:08:09.750Z,73.37
2024-05-09T07:10:37.962Z,70.99
2024-05-09T07:13:09.813Z,69.24
2024-05-09T07:15:37.624Z,65.59
2024-05-09T07:18:16.713Z,64.78
2024-05-09T07:20:46.438Z,63.80
2024-05-09T07:23:14.978Z,62.46
2024-05-09T07:25:42.849Z,62.63
2024-05-09T07:28:13.425Z,63.47
2024-05-09T07:30:41.858Z,62.98
2024-05-09T07:33:12.050Z,62.32
2024-05-09T07:35:39.934Z,61.26
2024-05-09T07:38:08.219Z,60.12
2024-05-09T07:40:37.052Z,58.02
2024-05-09T07:43:06.621Z,52.43
2024-05-09T07:53:37.054Z,51.24
2024-05-09T07:55:57.683Z,50.46
2024-05-09T07:58:27.595Z,50.42
2024-05-09T08:00:55.676Z,50.27
2024-05-09T08:03:23.603Z,49.99
2024-05-09T08:05:51.794Z,49.99
2024-05-09T08:08:19.959Z,50.78
2024-05-09T08:10:48.063Z,51.88
2024-05-09T08:13:15.831Z,51.38
2024-05-09T08:15:43.478Z,51.12
2024-05-09T08:18:11.517Z,50.42
2024-05-09T08:20:41.355Z,50.03
2024-05-09T08:23:10.697Z,49.44
2024-05-09T08:25:38.643Z,48.15
2024-05-09T08:28:06.583Z,49.19
2024-05-09T08:30:37.224Z,47.35
2024-05-09T08:33:07.117Z,47.86
2024-05-09T08:35:36.324Z,46.43
2024-05-09T08:38:05.715Z,46.92
2024-05-09T08:40:36.298Z,44.98
2024-05-09T08:43:11.546Z,46.35
2024-05-09T08:45:45.126Z,45.70
2024-05-09T08:48:15.261Z,47.47
2024-05-09T08:50:45.269Z,46.25
2024-05-09T08:53:15.138Z,46.82
2024-05-09T08:55:45.466Z,47.96
2024-05-09T08:58:17.040Z,47.81
2024-05-09T09:00:46.392Z,48.29
2024-05-09T09:03:19.402Z,45.39
2024-05-09T09:06:05.372Z,46.88
2024-05-09T09:08:33.033Z,45.10
2024-05-09T09:11:00.690Z,44.85
2024-05-09T09:13:28.700Z,45.78
2024-05-09T09:15:59.941Z,43.72
2024-05-09T09:18:29.882Z,43.25
2024-05-09T09:20:57.611Z,43.36
2024-05-09T09:23:30.473Z,43.00
2024-05-09T09:26:01.450Z,44.88
2024-05-09T09:28:29.837Z,44.96
2024-05-09T09:31:03.036Z,42.37
2024-05-09T09:33:31.485Z,43.59
2024-05-09T09:36:03.147Z,43.60
2024-05-09T09:38:32.339Z,43.13
2024-05-09T09:41:04.005Z,43.24
2024-05-09T09:43:33.205Z,43.58
2024-05-09T09:46:02.040Z,43.72
2024-05-09T09:48:31.454Z,42.61
2024-05-09T09:51:00.081Z,41.90
2024-05-09T09:53:33.469Z,42.59
2024-05-09T09:56:01.983Z,43.36
2024-05-09T09:58:32.675Z,43.13
2024-05-09T10:01:00.538Z,42.19
2024-05-09T10:03:28.568Z,42.47
2024-05-09T10:05:57.894Z,41.66
2024-05-09T10:08:25.856Z,41.55
2024-05-09T10:10:54.221Z,40.68
2024-05-09T10:13:32.682Z,41.52
2024-05-09T10:16:07.316Z,39.70
2024-05-09T10:18:39.854Z,40.96
2024-05-09T10:21:18.433Z,40.90
2024-05-09T10:24:09.222Z,40.22
2024-05-09T10:26:38.218Z,40.15
2024-05-09T10:29:13.698Z,38.70
2024-05-09T10:31:42.716Z,37.93
2024-05-09T10:34:18.564Z,39.16
2024-05-09T10:36:46.138Z,38.72
2024-05-09T10:39:13.858Z,38.73
2024-05-09T10:41:41.394Z,37.62
2024-05-09T10:44:17.026Z,38.54
2024-05-09T10:46:46.139Z,39.58
2024-05-09T10:49:14.766Z,39.21
2024-05-09T10:51:47.346Z,38.72
2024-05-09T10:54:15.278Z,38.77
2024-05-09T10:56:43.090Z,38.95
2024-05-09T10:59:12.454Z,38.88
2024-05-09T11:01:40.540Z,40.22
2024-05-09T11:04:09.288Z,41.19
2024-05-09T11:06:38.271Z,42.59
2024-05-09T11:09:06.383Z,42.37
2024-05-09T11:11:34.333Z,42.27
2024-05-09T11:14:12.483Z,41.92
2024-05-09T11:16:40.333Z,42.71
2024-05-09T11:19:13.068Z,42.64
2024-05-09T11:21:40.766Z,42.21
2024-05-09T11:24:11.375Z,42.02
2024-05-09T11:26:39.614Z,41.79
2024-05-09T11:29:07.160Z,41.51
2024-05-09T11:31:45.752Z,41.52
2024-05-09T11:34:13.672Z,41.28
2024-05-09T11:36:41.502Z,42.12
2024-05-09T11:39:09.506Z,41.82
2024-05-09T11:41:37.539Z,42.07
2024-05-09T11:44:05.194Z,41.53
2024-05-09T11:46:32.904Z,40.38
2024-05-09T11:49:00.643Z,40.91
2024-05-09T11:51:28.373Z,40.93
2024-05-09T11:53:56.176Z,41.74
2024-05-09T11:56:23.706Z,41.80
2024-05-09T11:58:51.293Z,42.09
2024-05-09T12:01:20.089Z,41.64
2024-05-09T12:03:49.358Z,41.01
2024-05-09T12:06:17.677Z,41.22
2024-05-09T12:08:45.359Z,42.20
2024-05-09T12:11:13.929Z,42.44
2024-05-09T12:13:42.013Z,42.33
2024-05-09T12:16:09.984Z,41.30
2024-05-09T12:18:37.787Z,41.17
2024-05-09T12:21:05.656Z,41.32
2024-05-09T12:23:33.329Z,40.55
2024-05-09T12:26:01.278Z,40.10
2024-05-09T12:28:28.990Z,40.97
2024-05-09T12:30:57.006Z,41.87
2024-05-09T12:33:24.830Z,42.07
2024-05-09T12:35:52.743Z,41.51
2024-05-09T12:38:20.553Z,40.88
2024-05-09T12:40:48.271Z,39.80
2024-05-09T12:43:17.118Z,40.31
2024-05-09T12:45:44.949Z,40.58
2024-05-09T12:48:13.359Z,40.56
2024-05-09T12:50:42.006Z,41.08
2024-05-09T12:53:10.180Z,41.37
2024-05-09T12:55:44.818Z,41.31
2024-05-09T12:58:23.946Z,41.62
2024-05-09T13:00:52.288Z,41.26
2024-05-09T13:03:21.039Z,41.56
2024-05-09T13:05:52.849Z,40.14
2024-05-09T13:08:21.206Z,40.76
2024-05-09T13:10:49.964Z,40.76
2024-05-09T13:13:17.692Z,39.47
2024-05-09T13:15:45.873Z,39.00
2024-05-09T13:18:13.980Z,38.92
2024-05-09T13:20:41.853Z,39.09
2024-05-09T13:23:09.774Z,39.20
2024-05-09T13:25:38.352Z,38.26
2024-05-09T13:28:07.635Z,38.60
2024-05-09T13:30:40.381Z,37.82
2024-05-09T13:33:11.932Z,38.56
2024-05-09T13:35:45.714Z,38.70
2024-05-09T13:38:21.268Z,38.43
2024-05-09T13:40:50.218Z,37.93
2024-05-09T13:43:18.919Z,36.94
2024-05-09T13:45:47.269Z,37.06
2024-05-09T13:48:15.269Z,37.82
2024-05-09T13:50:43.137Z,38.14
2024-05-09T13:53:11.994Z,38.43
2024-05-09T13:55:40.482Z,37.60
2024-05-09T13:58:09.450Z,37.91
2024-05-09T14:00:45.016Z,37.89
2024-05-09T14:03:19.701Z,37.85
2024-05-09T14:05:50.852Z,37.80
2024-05-09T14:08:22.126Z,37.78
2024-05-09T14:10:50.826Z,38.03
2024-05-09T14:13:19.942Z,37.78
2024-05-09T14:15:48.395Z,37.79
2024-05-09T14:18:16.644Z,37.60
2024-05-09T14:20:44.291Z,37.93
2024-05-09T14:23:11.795Z,38.49
2024-05-09T14:25:42.733Z,38.82
2024-05-09T14:28:13.009Z,38.84
2024-05-09T14:30:42.046Z,37.91
2024-05-09T14:33:11.229Z,38.90
2024-05-09T14:35:39.316Z,39.14
2024-05-09T14:38:08.794Z,38.21
2024-05-09T14:40:42.007Z,38.52
2024-05-09T14:43:13.982Z,38.99
2024-05-09T14:45:43.278Z,39.24
2024-05-09T14:48:13.895Z,39.08
2024-05-09T14:50:42.407Z,37.81
2024-05-09T14:53:11.245Z,35.71
2024-05-09T14:55:41.137Z,36.08
2024-05-09T14:58:11.512Z,36.42
2024-05-09T15:00:45.897Z,36.05
2024-05-09T15:03:21.806Z,36.00
2024-05-09T15:05:51.374Z,35.51
2024-05-09T15:08:20.125Z,35.36
2024-05-09T15:10:49.588Z,35.83
2024-05-09T15:13:19.366Z,34.91
2024-05-09T15:15:47.437Z,34.03
2024-05-09T15:18:16.165Z,32.68
2024-05-09T15:20:44.753Z,31.47
2024-05-09T15:23:13.125Z,30.72
2024-05-09T15:25:40.816Z,29.60
2024-05-09T15:28:08.683Z,26.21
2024-05-09T15:30:37.679Z,26.45
2024-05-09T15:33:06.971Z,25.51
2024-05-09T15:35:35.805Z,25.57
2024-05-09T15:38:04.778Z,23.19
2024-05-09T15:40:39.483Z,21.44
2024-05-09T15:43:10.579Z,21.04
2024-05-09T15:45:41.248Z,20.87
2024-05-09T15:48:10.893Z,19.56
2024-05-09T15:50:41.457Z,17.98
2024-05-09T15:53:13.136Z,18.56
2024-05-09T15:55:42.499Z,17.61
2024-05-09T15:58:10.932Z,16.91
2024-05-09T16:00:42.224Z,16.01
2024-05-09T16:03:13.368Z,16.14
2024-05-09T16:05:44.910Z,15.89
2024-05-09T16:08:14.538Z,16.29
2024-05-09T16:10:45.847Z,15.83
2024-05-09T16:13:15.697Z,16.57
2024-05-09T16:15:43.920Z,16.94
2024-05-09T16:18:12.975Z,16.61
2024-05-09T16:20:42.469Z,16.54
2024-05-09T16:23:12.573Z,16.55
2024-05-09T16:25:45.396Z,16.70
2024-05-09T16:28:13.757Z,16.64
2024-05-09T16:30:41.644Z,16.51
2024-05-09T16:33:11.725Z,16.67
2024-05-09T16:35:40.005Z,16.41
2024-05-09T16:38:08.009Z,16.61
2024-05-09T16:40:39.799Z,16.30
2024-05-09T16:43:10.883Z,16.28
2024-05-09T16:45:40.431Z,16.04
2024-05-09T16:48:08.987Z,16.34
2024-05-09T16:50:37.344Z,15.95
2024-05-09T16:53:06.739Z,16.50
2024-05-09T16:55:35.581Z,16.58
2024-05-09T16:58:04.462Z,16.63
2024-05-09T17:00:40.251Z,16.58
2024-05-09T17:03:14.234Z,16.29
2024-05-09T17:05:46.512Z,16.73
2024-05-09T17:08:18.044Z,16.75
2024-05-09T17:10:48.938Z,16.63
2024-05-09T17:13:18.249Z,16.80
2024-05-09T17:15:46.801Z,16.70
2024-05-09T17:18:15.556Z,17.12
2024-05-09T17:20:43.135Z,17.55
2024-05-09T17:23:14.383Z,17.99
2024-05-09T17:25:42.956Z,18.48
2024-05-09T17:28:11.362Z,19.05
2024-05-09T17:30:41.626Z,19.63
2024-05-09T17:33:11.996Z,19.58
2024-05-09T17:35:41.144Z,20.08
2024-05-09T17:38:11.906Z,20.42
2024-05-09T17:40:40.106Z,20.88
2024-05-09T17:43:10.749Z,21.93
2024-05-09T17:45:40.853Z,22.47
2024-05-09T17:48:11.656Z,23.33
2024-05-09T17:50:41.585Z,24.97
2024-05-09T17:53:10.709Z,25.32
2024-05-09T17:55:40.257Z,26.60
2024-05-09T17:58:08.991Z,27.93
2024-05-09T18:00:40.265Z,29.26
2024-05-09T18:03:14.218Z,31.22
2024-05-09T18:05:44.776Z,32.16
2024-05-09T18:08:13.568Z,33.26
2024-05-09T18:10:42.039Z,35.18
2024-05-09T18:13:12.226Z,35.94
2024-05-09T18:15:40.756Z,36.91
2024-05-09T18:18:10.488Z,37.77
2024-05-09T18:20:43.655Z,38.51
2024-05-09T18:23:17.677Z,40.25
2024-05-09T18:25:47.989Z,43.06
2024-05-09T18:28:16.998Z,43.95
2024-05-09T18:30:45.691Z,44.46
2024-05-09T18:33:13.939Z,45.45
2024-05-09T18:35:43.939Z,46.83
2024-05-09T18:38:11.777Z,48.16
2024-05-09T18:40:41.159Z,49.60
2024-05-09T18:43:11.400Z,50.93
2024-05-09T18:45:39.889Z,51.89
2024-05-09T18:48:09.681Z,53.12
2024-05-09T18:50:40.327Z,54.48
2024-05-09T18:53:11.766Z,56.07
2024-05-09T18:55:41.668Z,57.16
2024-05-09T18:58:09.624Z,58.05
2024-05-09T19:00:40.206Z,58.44
2024-05-09T19:03:12.856Z,60.55
2024-05-09T19:05:44.214Z,61.56
2024-05-09T19:08:14.683Z,62.68
2024-05-09T19:10:43.010Z,63.43
2024-05-09T19:13:13.143Z,64.51
2024-05-09T19:15:42.910Z,65.90
2024-05-09T19:18:15.643Z,67.13
2024-05-09T19:20:43.957Z,67.44
2024-05-09T19:23:12.264Z,67.49
2024-05-09T19:25:40.319Z,69.05
2024-05-09T19:28:08.539Z,70.84
2024-05-09T19:30:40.688Z,71.21
2024-05-09T19:33:12.884Z,72.20
2024-05-09T19:35:42.788Z,73.13
2024-05-09T19:38:11.778Z,74.07
2024-05-09T19:40:39.363Z,74.90
2024-05-09T19:43:07.600Z,75.58
2024-05-09T19:45:36.471Z,76.58
2024-05-09T19:48:06.411Z,77.41
2024-05-09T19:50:41.522Z,78.46
2024-05-09T19:53:13.946Z,79.63
2024-05-09T19:55:42.486Z,79.94
2024-05-09T19:58:11.261Z,80.71
2024-05-09T20:00:42.135Z,81.00
2024-05-09T20:03:12.456Z,81.93
2024-05-09T20:05:43.947Z,83.16
2024-05-09T20:08:12.235Z,84.04
2024-05-09T20:10:39.921Z,84.14
2024-05-09T20:13:08.549Z,84.53
2024-05-09T20:15:37.426Z,85.43
2024-05-09T20:18:06.308Z,84.45
2024-05-09T20:20:39.254Z,85.55
2024-05-09T20:23:13.969Z,86.84
2024-05-09T20:25:42.263Z,87.33
2024-05-09T20:28:11.117Z,87.41
2024-05-09T20:30:39.362Z,88.47
2024-05-09T20:33:08.727Z,89.07
2024-05-09T20:35:37.546Z,89.50
2024-05-09T20:38:05.624Z,90.86
2024-05-09T20:40:37.261Z,91.59
2024-05-09T20:43:08.443Z,92.42
2024-05-09T20:45:36.535Z,92.85
2024-05-09T20:48:05.104Z,92.77
2024-05-09T20:50:38.762Z,93.13
2024-05-09T20:53:14.698Z,94.07
2024-05-09T20:55:44.530Z,94.39
2024-05-09T20:58:13.546Z,94.45
2024-05-09T21:00:44.479Z,95.18
2024-05-09T21:03:16.669Z,95.84
2024-05-09T21:05:46.795Z,96.30
2024-05-09T21:08:15.054Z,96.73
2024-05-09T21:10:42.824Z,96.84
2024-05-09T21:13:11.183Z,97.68
2024-05-09T21:15:38.989Z,98.62
2024-05-09T21:18:07.352Z,99.00
2024-05-09T21:20:37.452Z,99.52
2024-05-09T21:23:05.400Z,99.67
2024-05-09T21:25:33.228Z,99.58
2024-05-09T21:28:01.283Z,99.69
2024-05-09T21:30:38.495Z,99.80
2024-05-09T21:33:13.569Z,100.00
2024-05-09T21:35:43.611Z,100.00
2024-05-09T21:38:13.308Z,100.00
2024-05-09T21:40:41.724Z,100.00
2024-05-09T21:43:09.850Z,100.00
2024-05-09T21:45:37.866Z,100.00
2024-05-09T21:48:07.116Z,100.00
2024-05-09T21:50:40.309Z,100.00
2024-05-09T21:53:11.852Z,100.00
2024-05-09T21:55:40.067Z,100.00
2024-05-09T21:58:07.983Z,100.00
2024-05-09T22:00:39.433Z,100.00
2024-05-09T22:03:08.441Z,100.00
2024-05-09T22:05:38.802Z,100.00
2024-05-09T22:08:07.269Z,100.00
2024-05-09T22:10:36.499Z,100.00
2024-05-09T22:13:06.358Z,100.00
2024-05-09T22:15:36.843Z,100.00
2024-05-09T22:18:07.227Z,100.00
2024-05-09T22:20:38.455Z,100.00
2024-05-09T22:23:08.327Z,100.00
2024-05-09T22:25:38.654Z,100.00
2024-05-09T22:28:07.217Z,100.00
2024-05-09T22:30:38.459Z,100.00
2024-05-09T22:33:10.115Z,100.00
2024-05-09T22:35:40.263Z,100.00
2024-05-09T22:38:08.649Z,100.00
2024-05-09T22:40:46.342Z,100.00
2024-05-09T22:43:23.050Z,100.00
2024-05-09T22:45:54.567Z,100.00
2024-05-09T22:48:23.926Z,100.00
2024-05-09T22:50:52.932Z,100.00
2024-05-09T22:53:25.196Z,100.00
2024-05-09T22:55:53.454Z,100.00
2024-05-09T22:58:21.969Z,100.00
2024-05-09T23:00:49.764Z,100.00
2024-05-09T23:03:20.852Z,100.00
2024-05-09T23:05:49.029Z,100.00
2024-05-09T23:08:16.584Z,100.00
2024-05-09T23:10:44.315Z,100.00
2024-05-09T23:13:12.102Z,100.00
2024-05-09T23:15:39.843Z,100.00
2024-05-09T23:18:08.245Z,100.00
2024-05-09T23:20:39.027Z,100.00
2024-05-09T23:23:10.010Z,100.00
2024-05-09T23:25:41.440Z,100.00
2024-05-09T23:28:10.354Z,100.00
2024-05-09T23:30:40.587Z,100.00
2024-05-09T23:33:11.922Z,100.00
2024-05-09T23:35:41.709Z,100.00
2024-05-09T23:38:09.505Z,100.00
2024-05-09T23:40:40.110Z,100.00
2024-05-09T23:43:10.477Z,100.00
2024-05-09T23:45:38.744Z,100.00
2024-05-09T23:48:07.605Z,100.00
2024-05-09T23:50:37.999Z,100.00
2024-05-09T23:53:08.988Z,100.00
2024-05-09T23:55:38.865Z,100.00
2024-05-09T23:58:07.682Z,100.00
